Log in

NYSE:VMIValmont Industries Institutional Ownership

$114.00
+0.62 (+0.55 %)
(As of 05/29/2020 04:00 PM ET)
Add
Compare
Today's Range
$112.21
Now: $114.00
$114.66
50-Day Range
$101.28
MA: $109.49
$119.42
52-Week Range
$82.60
Now: $114.00
$154.86
Volume174,175 shs
Average Volume188,320 shs
Market Capitalization$2.44 billion
P/E Ratio15.41
Dividend Yield1.59%
Beta1.29

Institutional Ownership

Institutional Ownership Changes (13F Filings) for Valmont Industries (NYSE:VMI)

Institutional Ownership Percentage: 85.83%

Institutional Buying and Selling by Quarter


Valmont Industries (NYSE VMI) Institutional Buying and Selling

Reporting DateHedge FundShares HeldMarket Value% of PortfolioQuarterly Change in SharesOwnership in Company
5/28/2020State of Tennessee Treasury Department6,629$0.70M0.0%+10.3%0.031%
5/23/2020The Manufacturers Life Insurance Company 30,834$3.27M0.0%+2.1%0.144%
5/20/2020FCA Corp TX23,998$2.54M1.1%+0.8%0.112%
5/18/2020Advisor Group Holdings Inc.8,779$0.35M0.0%N/A0.041%
5/15/2020AQR Capital Management LLC38,902$3.93M0.0%-0.6%0.182%
5/15/2020Engineers Gate Manager LP2,770$0.29M0.0%N/A0.013%
5/15/2020Value Holdings Management CO. LLC38,862$4.12M2.0%+34.6%0.182%
5/15/2020Squarepoint Ops LLC7,714$0.82M0.0%-41.0%0.036%
5/15/2020Meeder Asset Management Inc.610$65K0.0%-83.9%0.003%
5/15/2020Invesco Ltd.197,154$20.89M0.0%-40.9%0.923%
5/15/2020FinTrust Capital Advisors LLC1,065$0.11M0.1%N/A0.005%
5/15/2020Schroder Investment Management Group552,270$60.20M0.1%-2.3%2.586%
5/15/2020Cramer Rosenthal Mcglynn LLC447,895$47.47M2.2%-20.0%2.097%
5/15/2020Morgan Stanley14,546$1.54M0.0%-34.6%0.068%
5/15/2020Two Sigma Advisers LP22,600$2.40M0.0%-33.3%0.106%
5/15/2020Balyasny Asset Management LLC4,175$0.44M0.0%-88.7%0.020%
5/15/2020Impax Asset Management Group plc1,011,827$107.23M1.4%+18.3%4.738%
5/15/2020Thrivent Financial for Lutherans418,318$44.33M0.2%-15.0%1.959%
5/14/2020Gabelli Funds LLC30,500$3.23M0.0%+1.7%0.143%
5/14/2020Wells Fargo & Company MN52,219$5.54M0.0%+12.3%0.245%
5/14/2020Mackenzie Financial Corp33,968$3.60M0.0%N/A0.159%
5/14/2020Gamco Investors INC. ET AL13,200$1.40M0.0%+32.0%0.062%
5/14/2020Geode Capital Management LLC248,868$26.37M0.0%-0.1%1.165%
5/14/2020Commonwealth of Pennsylvania Public School Empls Retrmt SYS5,064$0.54M0.0%+33.4%0.024%
5/14/2020Wellington Management Group LLP508,280$53.87M0.0%+3.2%2.380%
5/14/2020Fiduciary Management Inc. WI490,292$51.96M0.5%-1.5%2.296%
5/14/2020Legal & General Group Plc60,088$6.37M0.0%-3.2%0.281%
5/14/2020Deutsche Bank AG17,758$1.88M0.0%-30.4%0.083%
5/14/2020Baird Financial Group Inc.6,867$0.73M0.0%-6.2%0.032%
5/14/2020Dean Capital Management4,195$0.45M0.7%-10.8%0.020%
5/14/2020Alliancebernstein L.P.239,059$25.34M0.0%+547.0%1.119%
5/14/2020M&T Bank Corp1,971$0.21M0.0%+6.8%0.009%
5/14/2020Nuveen Asset Management LLC83,087$8.81M0.0%+5.0%0.389%
5/13/2020Canada Pension Plan Investment Board5,634$0.60M0.0%+40.9%0.026%
5/13/2020Twin Tree Management LP606$64K0.0%N/A0.003%
5/13/2020King Luther Capital Management Corp503,155$53.32M0.5%+0.0%2.356%
5/13/2020Parametric Portfolio Associates LLC37,200$3.94M0.0%-17.3%0.174%
5/13/2020Treasurer of the State of North Carolina8,762$0.93M0.0%+71.1%0.041%
5/13/2020BNP Paribas Arbitrage SA1,113$0.12M0.0%-66.7%0.005%
5/13/2020Horizon Kinetics Asset Management LLC2,550$0.27M0.0%+5.2%0.012%
5/13/2020Federated Hermes Inc.16,311$1.73M0.0%+41.4%0.076%
5/13/2020Pictet Asset Management Ltd.332,806$35.27M0.1%-35.2%1.558%
5/13/2020Bogle Investment Management L P DE4,000$0.42M0.0%N/A0.019%
5/13/2020US Bancorp DE2,246$0.24M0.0%-31.1%0.011%
5/12/2020Citigroup Inc.12,545$1.33M0.0%-26.3%0.059%
5/12/2020Sowell Financial Services LLC1,819$0.19M0.0%-14.6%0.009%
5/12/2020Bridges Investment Management Inc.18,339$1.94M0.1%-48.1%0.086%
5/12/2020Principal Financial Group Inc.66,096$7.01M0.0%-29.2%0.309%
5/12/2020Victory Capital Management Inc.282,529$29.94M0.1%+5,304.2%1.323%
5/12/2020Farr Miller & Washington LLC DC234,676$24.87M2.3%+1.6%1.099%
5/12/2020JPMorgan Chase & Co.24,791$2.63M0.0%-24.3%0.116%
5/11/2020Ensign Peak Advisors Inc26,802$2.84M0.0%+69.6%0.125%
5/11/2020Arjuna Capital7,731$0.82M0.7%N/A0.036%
5/11/2020State Street Corp528,994$56.30M0.0%+1.9%2.477%
5/11/2020WINTON GROUP Ltd32,772$3.47M0.1%-8.5%0.153%
5/11/2020Martingale Asset Management L P13,553$1.44M0.0%N/A0.063%
5/11/2020Mutual of America Capital Management LLC20,043$2.12M0.0%+4.0%0.094%
5/8/2020Northwestern Mutual Wealth Management Co.767$81K0.0%N/A0.004%
5/8/2020Northwestern Mutual Investment Management Company LLC7,479$0.79M0.0%+21.6%0.035%
5/8/2020Commerce Bank2,319$0.25M0.0%+49.3%0.011%
5/8/2020Trexquant Investment LP4,527$0.48M0.0%N/A0.021%
5/8/2020CWM Advisors LLC2,338$0.25M0.1%+68.4%0.011%
5/8/2020Speece Thorson Capital Group Inc.4,353$0.46M0.2%-89.6%0.020%
5/8/2020PNC Financial Services Group Inc.1,099$0.12M0.0%-16.2%0.005%
5/8/2020Swiss National Bank41,700$4.42M0.0%+0.7%0.195%
5/8/2020Oppenheimer Asset Management Inc.1,517$0.16M0.0%-6.5%0.007%
5/6/2020Zurcher Kantonalbank Zurich Cantonalbank19,412$2.06M0.0%+2.9%0.091%
5/6/2020First Trust Advisors LP129,025$13.67M0.0%+14.0%0.604%
5/6/2020Russell Investments Group Ltd.13,859$1.47M0.0%+1,594.3%0.065%
5/6/2020Bank of New York Mellon Corp439,743$46.61M0.0%+12.6%2.059%
5/6/2020Rhumbline Advisers57,926$6.14M0.0%+9.5%0.271%
5/5/2020Stone Ridge Asset Management LLC17,416$1.85M0.2%+21.7%0.082%
5/5/2020D.A. Davidson & CO.44,715$4.74M0.1%+0.5%0.209%
5/5/2020Fifth Third Bancorp410$43K0.0%+310.0%0.002%
5/5/2020Arizona State Retirement System5,053$0.54M0.0%-58.6%0.024%
5/5/2020State Board of Administration of Florida Retirement System18,896$2M0.0%+18.6%0.088%
5/5/2020Creative Planning8,003$0.85M0.0%+10.3%0.037%
5/5/2020Aperio Group LLC12,131$1.29M0.0%+102.7%0.057%
5/4/2020Nicollet Investment Management Inc.4,906$0.52M0.4%-2.9%0.023%
5/4/2020Los Angeles Capital Management & Equity Research Inc.3,139$0.33M0.0%-12.3%0.015%
5/4/2020American International Group Inc.41,973$4.45M0.0%+1.0%0.197%
5/4/2020Yacktman Asset Management LP16,013$1.70M0.0%N/A0.075%
5/4/2020KBC Group NV165,912$17.58M0.1%-16.1%0.777%
5/4/2020Victory Capital Management Inc.282,529$29.94M0.1%+5,304.2%1.323%
5/1/2020BlackRock Inc.1,910,182$202.44M0.0%+0.3%8.875%
5/1/2020State of Michigan Retirement System5,900$0.63M0.0%-6.3%0.027%
5/1/2020Comerica Bank13,427$1.51M0.0%+6.4%0.062%
5/1/2020UBS Group AG4,653$0.49M0.0%-72.7%0.022%
4/30/2020Janney Montgomery Scott LLC1,917$0.20M0.0%-10.5%0.009%
4/30/2020Bessemer Group Inc.28,583$3.03M0.0%N/A0.133%
4/29/2020Dupont Capital Management Corp1,976$0.21M0.0%-17.9%0.009%
4/29/2020First National Bank of Omaha4,400$0.47M0.0%-2.2%0.020%
4/27/2020Texas Permanent School Fund18,253$1.93M0.0%+24.0%0.085%
4/24/2020Boston Trust Walden Corp155,497$16.48M0.3%+45.4%0.723%
4/23/2020Strs Ohio6,398$0.68M0.0%+26.1%0.030%
4/22/2020Merriman Wealth Management LLC30,025$3.18M0.7%+200.3%0.139%
4/22/2020Shufro Rose & Co. LLC10,903$1.16M0.1%-5.4%0.051%
4/21/2020Raymond James & Associates6,639$0.70M0.0%-37.3%0.031%
4/21/2020Boston Trust Walden Corp155,497$16.48M0.3%+45.4%0.723%
4/20/2020Oregon Public Employees Retirement Fund8,253$0.88M0.0%-1.9%0.038%
(Data available from 1/1/2016 forward)
This page was last updated on 5/30/2020 by MarketBeat.com Staff

Enter your email address below to receive a concise daily summary of analysts' upgrades, downgrades and new coverage with MarketBeat.com's FREE daily email newsletter.